createdAt,value
2019-01-28T00:00:43.174Z,99.77
2019-01-28T00:03:10.815Z,99.77
2019-01-28T00:05:38.723Z,99.82
2019-01-28T00:08:06.337Z,99.83
2019-01-28T00:10:33.804Z,99.69
2019-01-28T00:13:01.408Z,99.91
2019-01-28T00:15:28.537Z,100.04
2019-01-28T00:17:55.774Z,99.91
2019-01-28T00:20:23.090Z,99.83
2019-01-28T00:22:50.062Z,99.69
2019-01-28T00:25:17.599Z,99.43
2019-01-28T00:27:45.301Z,99.59
2019-01-28T00:30:12.436Z,99.40
2019-01-28T00:32:39.787Z,99.39
2019-01-28T00:35:08.688Z,99.58
2019-01-28T00:37:36.155Z,99.56
2019-01-28T00:40:06.491Z,99.63
2019-01-28T00:42:33.887Z,99.89
2019-01-28T00:45:00.953Z,100.01
2019-01-28T00:47:28.292Z,100.06
2019-01-28T00:49:55.377Z,99.99
2019-01-28T00:52:22.792Z,99.88
2019-01-28T00:54:50.215Z,99.35
2019-01-28T00:57:17.814Z,99.34
2019-01-28T00:59:45.153Z,99.18
2019-01-28T01:02:13.386Z,99.02
2019-01-28T01:04:41.242Z,98.85
2019-01-28T01:07:08.914Z,98.71
2019-01-28T01:09:36.320Z,99.08
2019-01-28T01:12:04.702Z,98.90
2019-01-28T01:14:32.115Z,98.82
2019-01-28T01:16:59.005Z,98.67
2019-01-28T01:19:26.151Z,98.75
2019-01-28T01:21:53.261Z,98.98
2019-01-28T01:24:22.158Z,98.98
2019-01-28T01:26:49.521Z,98.79
2019-01-28T01:29:16.963Z,98.77
2019-01-28T01:31:44.251Z,98.43
2019-01-28T01:34:11.763Z,98.26
2019-01-28T01:36:39.240Z,98.28
2019-01-28T01:39:07.286Z,97.98
2019-01-28T01:41:34.824Z,97.70
2019-01-28T01:44:02.616Z,97.60
2019-01-28T01:46:30.176Z,97.90
2019-01-28T01:48:57.222Z,97.77
2019-01-28T01:51:24.842Z,97.99
2019-01-28T01:53:52.140Z,97.95
2019-01-28T01:56:19.542Z,97.44
2019-01-28T01:58:47.217Z,97.73
2019-01-28T02:01:14.468Z,97.69
2019-01-28T02:03:41.691Z,97.78
2019-01-28T02:06:08.897Z,97.53
2019-01-28T02:08:36.097Z,96.89
2019-01-28T02:11:03.465Z,97.09
2019-01-28T02:13:30.156Z,97.05
2019-01-28T02:15:57.524Z,97.15
2019-01-28T02:18:24.736Z,96.95
2019-01-28T02:20:51.998Z,96.54
2019-01-28T02:23:19.166Z,96.43
2019-01-28T02:25:46.507Z,96.32
2019-01-28T02:28:13.529Z,96.34
2019-01-28T02:30:40.731Z,96.32
2019-01-28T02:33:07.886Z,96.00
2019-01-28T02:35:35.231Z,95.83
2019-01-28T02:38:04.175Z,95.56
2019-01-28T02:40:31.533Z,95.87
2019-01-28T02:42:58.933Z,95.47
2019-01-28T02:45:28.259Z,95.08
2019-01-28T02:47:56.066Z,95.12
2019-01-28T02:50:26.591Z,95.10
2019-01-28T02:52:53.740Z,94.97
2019-01-28T02:55:39.875Z,94.44
2019-01-28T02:58:13.400Z,94.81
2019-01-28T03:00:40.524Z,94.91
2019-01-28T03:03:07.397Z,95.55
2019-01-28T03:05:34.283Z,95.70
2019-01-28T03:08:01.535Z,95.35
2019-01-28T03:10:28.577Z,95.20
2019-01-28T03:12:55.509Z,95.09
2019-01-28T03:15:22.500Z,94.63
2019-01-28T03:17:49.425Z,95.18
2019-01-28T03:20:17.859Z,95.32
2019-01-28T03:22:45.090Z,95.21
2019-01-28T03:25:14.465Z,95.37
2019-01-28T03:27:41.665Z,94.96
2019-01-28T03:30:11.775Z,94.96
2019-01-28T03:32:38.687Z,95.35
2019-01-28T03:35:08.010Z,95.23
2019-01-28T03:37:35.728Z,95.00
2019-01-28T03:40:06.459Z,95.36
2019-01-28T03:42:33.356Z,95.28
2019-01-28T03:45:00.562Z,95.27
2019-01-28T03:47:28.319Z,95.19
2019-01-28T03:49:56.040Z,95.38
2019-01-28T03:52:23.747Z,95.65
2019-01-28T03:54:50.965Z,95.56
2019-01-28T03:57:18.314Z,95.57
2019-01-28T03:59:45.451Z,95.40
2019-01-28T04:02:12.873Z,94.86
2019-01-28T04:04:40.228Z,94.74
2019-01-28T04:07:07.993Z,95.15
2019-01-28T04:09:35.565Z,95.47
2019-01-28T04:12:02.756Z,95.67
2019-01-28T04:14:29.893Z,95.63
2019-01-28T04:16:56.890Z,95.70
2019-01-28T04:19:24.084Z,95.46
2019-01-28T04:21:51.020Z,96.28
2019-01-28T04:24:17.940Z,96.09
2019-01-28T04:26:44.815Z,96.35
2019-01-28T04:29:12.120Z,96.34
2019-01-28T04:31:39.391Z,96.59
2019-01-28T04:34:06.610Z,96.34
2019-01-28T04:36:33.588Z,96.71
2019-01-28T04:39:00.659Z,96.10
2019-01-28T04:41:28.088Z,95.87
2019-01-28T04:43:55.247Z,95.98
2019-01-28T04:46:21.898Z,96.25
2019-01-28T04:48:48.612Z,96.04
2019-01-28T04:51:15.565Z,95.54
2019-01-28T04:53:42.150Z,95.47
2019-01-28T04:56:09.172Z,95.30
2019-01-28T04:58:36.159Z,94.98
2019-01-28T05:01:04.161Z,94.89
2019-01-28T05:03:31.726Z,94.61
2019-01-28T05:05:58.834Z,93.77
2019-01-28T05:08:25.634Z,93.96
2019-01-28T05:10:52.562Z,93.66
2019-01-28T05:13:19.665Z,93.80
2019-01-28T05:15:47.230Z,93.75
2019-01-28T05:18:14.388Z,93.66
2019-01-28T05:20:42.921Z,93.35
2019-01-28T05:23:10.380Z,93.53
2019-01-28T05:25:37.631Z,93.48
2019-01-28T05:28:04.837Z,94.02
2019-01-28T05:30:32.096Z,93.44
2019-01-28T05:32:59.376Z,93.33
2019-01-28T05:35:26.550Z,93.79
2019-01-28T05:37:53.501Z,93.45
2019-01-28T05:40:22.467Z,93.08
2019-01-28T05:42:49.684Z,92.98
2019-01-28T05:45:18.524Z,93.38
2019-01-28T05:47:45.570Z,93.60
2019-01-28T05:50:14.679Z,93.53
2019-01-28T05:52:42.416Z,93.70
2019-01-28T05:55:17.310Z,93.45
2019-01-28T05:57:45.029Z,93.41
2019-01-28T06:00:18.925Z,92.96
2019-01-28T06:02:45.795Z,92.82
2019-01-28T06:05:14.086Z,92.70
2019-01-28T06:07:41.317Z,92.65
2019-01-28T06:10:11.718Z,92.97
2019-01-28T06:12:38.570Z,92.55
2019-01-28T06:15:11.594Z,92.49
2019-01-28T06:17:39.262Z,92.49
2019-01-28T06:20:13.336Z,92.42
2019-01-28T06:22:40.755Z,92.53
2019-01-28T06:25:08.587Z,92.37
2019-01-28T06:27:36.222Z,92.50
2019-01-28T06:30:06.863Z,92.67
2019-01-28T06:32:34.557Z,92.84
2019-01-28T06:35:02.418Z,92.83
2019-01-28T06:37:29.869Z,92.61
2019-01-28T06:39:57.168Z,92.74
2019-01-28T06:42:24.113Z,93.01
2019-01-28T06:44:51.111Z,93.16
2019-01-28T06:47:18.023Z,93.06
2019-01-28T06:49:44.908Z,92.60
2019-01-28T06:52:12.127Z,92.44
2019-01-28T06:54:39.147Z,93.32
2019-01-28T06:57:06.248Z,94.12
2019-01-28T06:59:33.000Z,95.52
2019-01-28T07:01:59.507Z,94.14
2019-01-28T07:04:26.881Z,93.92
2019-01-28T07:06:55.489Z,94.08
2019-01-28T07:09:22.421Z,93.74
2019-01-28T07:11:49.381Z,94.85
2019-01-28T07:14:17.420Z,94.73
2019-01-28T07:16:44.323Z,93.92
2019-01-28T07:19:11.097Z,93.87
2019-01-28T07:21:37.800Z,93.64
2019-01-28T07:24:04.871Z,94.40
2019-01-28T07:26:31.450Z,94.89
2019-01-28T07:28:58.088Z,94.15
2019-01-28T07:31:25.300Z,94.77
2019-01-28T07:33:52.148Z,95.18
2019-01-28T07:36:19.608Z,95.42
2019-01-28T07:38:47.453Z,95.82
2019-01-28T07:41:15.060Z,95.38
2019-01-28T07:43:42.058Z,95.30
2019-01-28T07:46:09.919Z,95.41
2019-01-28T07:48:37.005Z,95.32
2019-01-28T07:51:03.989Z,94.99
2019-01-28T07:53:31.200Z,94.76
2019-01-28T07:55:58.684Z,94.94
2019-01-28T07:58:26.598Z,95.23
2019-01-28T08:00:53.788Z,94.86
2019-01-28T08:03:20.759Z,94.96
2019-01-28T08:05:47.703Z,94.98
2019-01-28T08:08:15.146Z,94.67
2019-01-28T08:10:42.502Z,94.54
2019-01-28T08:13:11.585Z,94.00
2019-01-28T08:15:38.531Z,93.28
2019-01-28T08:18:10.545Z,93.25
2019-01-28T08:20:34.919Z,93.48
2019-01-28T08:23:02.166Z,93.28
2019-01-28T08:25:29.922Z,93.07
2019-01-28T08:31:32.311Z,91.91
2019-01-28T08:33:59.503Z,91.56
2019-01-28T08:36:26.122Z,91.79
2019-01-28T08:38:52.632Z,91.52
2019-01-28T08:41:20.101Z,91.25
2019-01-28T08:43:47.522Z,90.67
2019-01-28T08:46:14.909Z,90.16
2019-01-28T08:48:41.938Z,90.09
2019-01-28T08:51:08.932Z,89.46
2019-01-28T08:53:35.507Z,89.51
2019-01-28T08:56:02.350Z,88.97
2019-01-28T08:58:29.327Z,89.08
2019-01-28T09:00:56.748Z,88.61
2019-01-28T09:03:23.545Z,88.55
2019-01-28T09:05:50.453Z,88.26
2019-01-28T09:08:17.333Z,88.78
2019-01-28T09:10:44.316Z,88.30
2019-01-28T09:13:11.100Z,88.77
2019-01-28T09:15:37.919Z,88.42
2019-01-28T09:18:05.682Z,88.75
2019-01-28T09:20:32.637Z,88.96
2019-01-28T09:22:59.195Z,88.80
2019-01-28T09:25:26.433Z,88.52
2019-01-28T09:27:53.161Z,87.56
2019-01-28T09:30:25.242Z,87.78
2019-01-28T09:32:52.011Z,87.55
2019-01-28T09:35:18.726Z,88.48
2019-01-28T09:37:45.573Z,88.52
2019-01-28T09:40:20.820Z,88.09
2019-01-28T09:42:48.093Z,88.40
2019-01-28T09:45:17.995Z,88.53
2019-01-28T09:47:44.566Z,88.57
2019-01-28T09:50:12.606Z,88.39
2019-01-28T09:52:39.774Z,88.13
2019-01-28T09:55:09.779Z,87.94
2019-01-28T09:57:36.692Z,87.62
2019-01-28T10:00:08.074Z,91.44
2019-01-28T10:02:34.992Z,88.55
2019-01-28T10:05:02.142Z,87.77
2019-01-28T10:07:28.902Z,87.51
2019-01-28T10:09:55.935Z,87.83
2019-01-28T10:12:22.682Z,87.62
2019-01-28T10:14:49.387Z,88.01
2019-01-28T10:17:16.041Z,87.92
2019-01-28T10:19:42.919Z,87.52
2019-01-28T10:22:09.802Z,87.14
2019-01-28T10:24:36.558Z,87.74
2019-01-28T10:27:03.303Z,87.36
2019-01-28T10:29:29.881Z,87.33
2019-01-28T10:31:56.515Z,88.36
2019-01-28T10:34:23.157Z,88.01
2019-01-28T10:36:50.386Z,87.59
2019-01-28T10:39:17.346Z,87.80
2019-01-28T10:41:45.913Z,88.33
2019-01-28T10:44:12.493Z,87.33
2019-01-28T10:46:39.106Z,87.87
2019-01-28T10:49:05.820Z,86.49
2019-01-28T10:51:32.406Z,86.65
2019-01-28T10:53:58.840Z,87.53
2019-01-28T10:56:25.400Z,87.57
2019-01-28T10:58:51.775Z,87.74
2019-01-28T11:01:18.332Z,87.59
2019-01-28T11:07:08.421Z,87.21
2019-01-28T11:09:35.150Z,86.79
2019-01-28T11:12:01.752Z,86.59
2019-01-28T11:14:28.885Z,86.15
2019-01-28T11:16:56.023Z,85.88
2019-01-28T11:19:23.097Z,86.31
2019-01-28T11:21:50.053Z,85.29
2019-01-28T11:24:16.881Z,85.36
2019-01-28T11:26:45.232Z,85.44
2019-01-28T11:29:12.558Z,85.62
2019-01-28T11:31:39.639Z,85.44
2019-01-28T11:34:06.412Z,85.40
2019-01-28T11:36:33.006Z,85.21
2019-01-28T11:38:59.519Z,85.42
2019-01-28T11:41:39.092Z,84.70
2019-01-28T11:44:05.680Z,84.91
2019-01-28T11:46:32.523Z,84.75
2019-01-28T11:49:05.732Z,84.26
2019-01-28T11:51:28.473Z,83.70
2019-01-28T11:53:55.142Z,84.19
2019-01-28T11:56:21.486Z,84.61
2019-01-28T11:58:48.107Z,83.95
2019-01-28T12:01:17.061Z,83.95
2019-01-28T12:03:43.829Z,84.04
2019-01-28T12:06:10.837Z,84.58
2019-01-28T12:08:37.554Z,84.63
2019-01-28T12:11:04.288Z,84.08
2019-01-28T12:13:30.602Z,84.11
2019-01-28T12:15:57.200Z,84.79
2019-01-28T12:18:23.790Z,85.06
2019-01-28T12:20:53.610Z,85.17
2019-01-28T12:23:19.254Z,84.62
2019-01-28T12:25:45.906Z,84.11
2019-01-28T12:28:12.891Z,84.08
2019-01-28T12:30:40.001Z,85.09
2019-01-28T12:33:06.436Z,85.40
2019-01-28T12:35:33.260Z,85.27
2019-01-28T12:37:59.939Z,85.28
2019-01-28T12:40:26.838Z,84.89
2019-01-28T12:42:53.387Z,84.87
2019-01-28T12:45:27.218Z,85.19
2019-01-28T12:47:53.811Z,84.84
2019-01-28T12:50:22.352Z,84.64
2019-01-28T12:52:49.315Z,84.44
2019-01-28T12:55:17.713Z,84.54
2019-01-28T12:57:44.756Z,84.95
2019-01-28T13:00:25.870Z,85.02
2019-01-28T13:02:53.837Z,85.86
2019-01-28T13:05:24.226Z,85.93
2019-01-28T13:07:50.537Z,85.29
2019-01-28T13:10:21.875Z,85.16
2019-01-28T13:12:48.366Z,85.11
2019-01-28T13:15:20.929Z,85.82
2019-01-28T13:17:47.600Z,86.89
2019-01-28T13:20:14.281Z,85.28
2019-01-28T13:22:44.929Z,85.45
2019-01-28T13:25:13.075Z,85.49
2019-01-28T13:27:39.982Z,85.44
2019-01-28T13:30:10.313Z,85.43
2019-01-28T13:32:36.847Z,85.64
2019-01-28T13:35:04.443Z,85.56
2019-01-28T13:37:32.515Z,85.22
2019-01-28T13:39:59.129Z,83.97
2019-01-28T13:42:25.750Z,84.46
2019-01-28T13:44:52.447Z,84.56
2019-01-28T13:47:18.957Z,84.69
2019-01-28T13:49:45.498Z,84.47
2019-01-28T13:52:12.112Z,84.23
2019-01-28T13:54:38.466Z,83.86
2019-01-28T13:57:04.715Z,83.28
2019-01-28T13:59:31.113Z,83.64
2019-01-28T14:01:57.871Z,83.81
2019-01-28T14:04:24.282Z,83.60
2019-01-28T14:06:50.922Z,83.60
2019-01-28T14:09:17.227Z,84.60
2019-01-28T14:11:43.494Z,83.98
2019-01-28T14:14:10.318Z,84.08
2019-01-28T14:16:36.866Z,83.31
2019-01-28T14:19:03.496Z,83.34
2019-01-28T14:21:29.988Z,83.28
2019-01-28T14:23:56.971Z,84.11
2019-01-28T14:26:23.527Z,84.22
2019-01-28T14:28:49.980Z,84.50
2019-01-28T14:31:16.560Z,83.57
2019-01-28T14:33:43.196Z,83.76
2019-01-28T14:36:10.057Z,83.82
2019-01-28T14:38:36.752Z,84.72
2019-01-28T14:41:03.168Z,84.50
2019-01-28T14:43:29.574Z,84.10
2019-01-28T14:45:56.202Z,83.68
2019-01-28T14:48:22.581Z,83.56
2019-01-28T14:50:48.983Z,84.05
2019-01-28T14:53:15.309Z,84.47
2019-01-28T14:55:41.698Z,84.57
2019-01-28T14:58:08.405Z,84.92
2019-01-28T15:00:40.635Z,85.37
2019-01-28T15:03:07.125Z,85.12
2019-01-28T15:05:34.138Z,85.14
2019-01-28T15:08:00.517Z,85.04
2019-01-28T15:10:27.054Z,84.64
2019-01-28T15:12:53.535Z,85.76
2019-01-28T15:15:31.661Z,86.05
2019-01-28T15:17:58.716Z,86.00
2019-01-28T15:20:25.355Z,86.42
2019-01-28T15:22:51.861Z,87.26
2019-01-28T15:25:18.204Z,87.27
2019-01-28T15:27:44.470Z,87.46
2019-01-28T15:30:22.936Z,87.82
2019-01-28T15:32:49.701Z,87.59
2019-01-28T15:35:21.978Z,87.80
2019-01-28T15:37:48.797Z,86.93
2019-01-28T15:40:21.703Z,86.96
2019-01-28T15:42:48.443Z,87.19
2019-01-28T15:45:20.942Z,86.68
2019-01-28T15:47:47.452Z,85.91
2019-01-28T15:50:19.427Z,85.99
2019-01-28T15:52:46.115Z,85.79
2019-01-28T15:55:16.045Z,85.75
2019-01-28T15:57:42.508Z,85.80
2019-01-28T16:00:12.791Z,85.31
2019-01-28T16:02:39.168Z,85.58
2019-01-28T16:05:08.517Z,85.60
2019-01-28T16:07:35.154Z,85.46
2019-01-28T16:10:01.625Z,85.21
2019-01-28T16:12:27.938Z,85.07
2019-01-28T16:14:55.969Z,85.93
2019-01-28T16:17:22.512Z,85.46
2019-01-28T16:19:49.249Z,85.56
2019-01-28T16:22:15.822Z,85.38
2019-01-28T16:24:42.652Z,85.88
2019-01-28T16:27:09.142Z,85.46
2019-01-28T16:29:35.577Z,85.58
2019-01-28T16:32:02.401Z,85.53
2019-01-28T16:34:29.011Z,85.40
2019-01-28T16:36:55.867Z,85.07
2019-01-28T16:39:22.338Z,84.67
2019-01-28T16:41:48.829Z,84.37
2019-01-28T16:44:15.299Z,84.15
2019-01-28T16:46:41.752Z,84.34
2019-01-28T16:49:08.236Z,84.41
2019-01-28T16:51:34.696Z,84.51
2019-01-28T16:54:01.041Z,84.89
2019-01-28T16:56:28.691Z,85.86
2019-01-28T16:58:55.765Z,86.47
2019-01-28T17:01:22.246Z,86.79
2019-01-28T17:03:49.308Z,85.74
2019-01-28T17:06:15.870Z,84.45
2019-01-28T17:08:42.418Z,84.14
2019-01-28T17:11:09.003Z,88.59
2019-01-28T17:13:35.695Z,85.89
2019-01-28T17:16:03.465Z,85.02
2019-01-28T17:18:30.132Z,84.84
2019-01-28T17:27:40.914Z,83.10
2019-01-28T17:33:45.818Z,84.66
2019-01-28T17:36:13.868Z,87.16
2019-01-28T17:42:04.198Z,85.30
2019-01-28T17:44:32.113Z,85.23
2019-01-28T17:46:58.785Z,85.34
2019-01-28T17:49:26.220Z,85.84
2019-01-28T17:51:52.658Z,85.85
2019-01-28T17:54:19.680Z,85.69
2019-01-28T17:56:46.950Z,85.94
2019-01-28T17:59:13.446Z,85.72
2019-01-28T18:01:40.152Z,86.29
2019-01-28T18:07:17.778Z,85.77
2019-01-28T18:09:44.494Z,86.56
2019-01-28T18:15:47.123Z,85.38
2019-01-28T18:18:13.676Z,83.76
2019-01-28T18:20:40.516Z,83.28
2019-01-28T18:23:09.801Z,83.63
2019-01-28T18:25:36.924Z,83.77
2019-01-28T18:28:04.805Z,83.49
2019-01-28T18:30:35.200Z,84.20
2019-01-28T18:33:01.708Z,83.18
2019-01-28T18:35:28.290Z,83.26
2019-01-28T18:37:54.997Z,83.92
2019-01-28T18:40:21.632Z,83.76
2019-01-28T18:42:48.499Z,83.39
2019-01-28T18:45:18.373Z,83.63
2019-01-28T18:47:45.030Z,84.02
2019-01-28T18:50:17.089Z,84.64
2019-01-28T18:52:43.790Z,85.13
2019-01-28T18:55:13.401Z,85.05
2019-01-28T18:57:39.747Z,85.21
2019-01-28T19:00:13.265Z,85.61
2019-01-28T19:02:39.699Z,86.03
2019-01-28T19:05:09.556Z,86.02
2019-01-28T19:07:37.811Z,86.17
2019-01-28T19:10:07.630Z,86.34
2019-01-28T19:12:35.890Z,86.49
2019-01-28T19:15:06.173Z,86.51
2019-01-28T19:17:34.458Z,86.46
2019-01-28T19:20:11.846Z,86.77
2019-01-28T19:26:12.711Z,87.67
2019-01-28T19:28:39.006Z,87.95
2019-01-28T19:31:05.454Z,88.25
2019-01-28T19:33:31.905Z,87.92
2019-01-28T19:38:57.981Z,88.84
2019-01-28T19:44:35.838Z,89.63
2019-01-28T19:50:26.936Z,90.57
2019-01-28T19:52:53.635Z,90.73
2019-01-28T19:55:22.018Z,91.47
2019-01-28T19:57:48.489Z,91.46
2019-01-28T20:00:23.374Z,91.52
2019-01-28T20:06:01.657Z,91.64
2019-01-28T20:08:27.939Z,91.55
2019-01-28T20:10:54.965Z,90.92
2019-01-28T20:13:21.544Z,90.58
2019-01-28T20:15:47.886Z,90.84
2019-01-28T20:18:15.101Z,90.49
2019-01-28T20:20:41.576Z,90.42
2019-01-28T20:23:07.885Z,90.74
2019-01-28T20:25:35.619Z,91.47
2019-01-28T20:28:02.296Z,91.35
2019-01-28T20:30:29.072Z,91.32
2019-01-28T20:32:55.445Z,91.15
2019-01-28T20:35:21.993Z,90.96
2019-01-28T20:41:12.168Z,90.64
2019-01-28T20:47:03.559Z,91.16
2019-01-28T20:52:53.203Z,90.52
2019-01-28T20:55:19.711Z,90.46
2019-01-28T20:57:46.207Z,91.40
2019-01-28T21:00:16.041Z,92.23
2019-01-28T21:02:42.274Z,91.69
2019-01-28T21:08:19.693Z,91.78
2019-01-28T21:14:09.539Z,91.95
2019-01-28T21:16:35.804Z,91.29
2019-01-28T21:19:02.336Z,90.45
2019-01-28T21:24:39.344Z,91.48
2019-01-28T21:27:05.770Z,89.80
2019-01-28T21:29:32.095Z,89.86
2019-01-28T21:31:58.558Z,89.74
2019-01-28T21:38:02.910Z,90.35
2019-01-28T21:40:29.382Z,90.36
2019-01-28T21:42:56.226Z,90.57
2019-01-28T21:45:22.914Z,90.81
2019-01-28T21:47:55.050Z,90.58
2019-01-28T21:50:23.562Z,90.54
2019-01-28T21:52:49.993Z,90.42
2019-01-28T21:55:16.378Z,89.49
2019-01-28T21:57:42.930Z,89.89
2019-01-28T22:03:33.457Z,90.10
2019-01-28T22:05:59.896Z,88.94
2019-01-28T22:08:26.404Z,88.62
2019-01-28T22:10:53.092Z,88.14
2019-01-28T22:13:20.140Z,88.04
2019-01-28T22:15:46.766Z,87.49
2019-01-28T22:18:13.299Z,87.88
2019-01-28T22:20:39.978Z,88.36
2019-01-28T22:23:06.512Z,89.17
2019-01-28T22:25:33.105Z,89.20
2019-01-28T22:27:59.490Z,88.97
2019-01-28T22:30:25.909Z,89.81
2019-01-28T22:32:52.303Z,90.46
2019-01-28T22:35:18.770Z,90.64
2019-01-28T22:37:45.387Z,91.32
2019-01-28T22:40:13.844Z,91.71
2019-01-28T22:42:40.600Z,91.96
2019-01-28T22:45:10.738Z,92.18
2019-01-28T22:47:37.476Z,92.87
2019-01-28T22:50:07.604Z,93.03
2019-01-28T22:55:45.222Z,93.57
2019-01-28T22:58:11.854Z,93.49
2019-01-28T23:00:48.968Z,93.82
2019-01-28T23:03:17.240Z,94.06
2019-01-28T23:05:43.761Z,93.99
2019-01-28T23:08:10.193Z,93.76
2019-01-28T23:10:36.908Z,93.80
2019-01-28T23:13:04.486Z,93.95
2019-01-28T23:15:31.268Z,93.44
2019-01-28T23:18:00.829Z,93.41
2019-01-28T23:20:27.618Z,93.07
2019-01-28T23:22:54.280Z,92.79
2019-01-28T23:25:20.651Z,92.64
2019-01-28T23:27:47.070Z,92.64
2019-01-28T23:30:13.685Z,92.58
2019-01-28T23:32:40.265Z,91.99
2019-01-28T23:35:07.885Z,91.76
2019-01-28T23:37:34.143Z,91.22
2019-01-28T23:40:00.440Z,91.08
2019-01-28T23:42:26.951Z,91.16
2019-01-28T23:44:53.215Z,90.87
2019-01-28T23:47:19.567Z,90.35
2019-01-28T23:49:45.872Z,90.32
2019-01-28T23:52:12.401Z,90.07
2019-01-28T23:54:38.896Z,89.94
2019-01-28T23:57:05.312Z,90.09
2019-01-28T23:59:31.616Z,90.21
